sensor_id;sensor_type;location;lat;lon;timestamp;P1;durP1;ratioP1;P2;durP2;ratioP2
11037;SDS011;5572;49.540;11.932;2022-08-20T00:00:33;6.10;;;5.50;;
11037;SDS011;5572;49.540;11.932;2022-08-20T00:03:03;5.33;;;4.60;;
11037;SDS011;5572;49.540;11.932;2022-08-20T00:05:32;5.00;;;4.00;;
11037;SDS011;5572;49.540;11.932;2022-08-20T00:08:00;4.57;;;4.13;;
11037;SDS011;5572;49.540;11.932;2022-08-20T00:10:28;4.70;;;4.30;;
11037;SDS011;5572;49.540;11.932;2022-08-20T00:12:56;5.70;;;5.20;;
11037;SDS011;5572;49.540;11.932;2022-08-20T00:15:25;5.17;;;4.50;;
11037;SDS011;5572;49.540;11.932;2022-08-20T00:17:55;4.50;;;4.10;;
11037;SDS011;5572;49.540;11.932;2022-08-20T00:20:24;4.23;;;3.83;;
11037;SDS011;5572;49.540;11.932;2022-08-20T00:22:53;3.70;;;3.40;;
11037;SDS011;5572;49.540;11.932;2022-08-20T00:25:20;4.30;;;3.73;;
11037;SDS011;5572;49.540;11.932;2022-08-20T00:27:47;3.50;;;3.20;;
11037;SDS011;5572;49.540;11.932;2022-08-20T00:30:14;3.50;;;3.20;;
11037;SDS011;5572;49.540;11.932;2022-08-20T00:32:41;3.73;;;3.43;;
11037;SDS011;5572;49.540;11.932;2022-08-20T00:35:10;4.10;;;3.70;;
11037;SDS011;5572;49.540;11.932;2022-08-20T00:37:37;3.27;;;3.00;;
11037;SDS011;5572;49.540;11.932;2022-08-20T00:40:04;3.60;;;3.30;;
11037;SDS011;5572;49.540;11.932;2022-08-20T00:42:39;4.00;;;3.70;;
11037;SDS011;5572;49.540;11.932;2022-08-20T00:45:06;5.27;;;3.60;;
11037;SDS011;5572;49.540;11.932;2022-08-20T00:47:33;3.93;;;3.30;;
11037;SDS011;5572;49.540;11.932;2022-08-20T00:50:00;4.03;;;3.73;;
11037;SDS011;5572;49.540;11.932;2022-08-20T00:52:28;3.20;;;3.00;;
11037;SDS011;5572;49.540;11.932;2022-08-20T00:54:56;4.23;;;3.73;;
11037;SDS011;5572;49.540;11.932;2022-08-20T00:57:27;3.73;;;3.43;;
11037;SDS011;5572;49.540;11.932;2022-08-20T00:59:56;4.67;;;3.57;;
11037;SDS011;5572;49.540;11.932;2022-08-20T01:02:24;3.73;;;3.43;;
11037;SDS011;5572;49.540;11.932;2022-08-20T01:04:54;5.83;;;3.87;;
11037;SDS011;5572;49.540;11.932;2022-08-20T01:07:21;3.67;;;3.37;;
11037;SDS011;5572;49.540;11.932;2022-08-20T01:09:57;4.00;;;3.70;;
11037;SDS011;5572;49.540;11.932;2022-08-20T01:12:25;4.87;;;2.90;;
11037;SDS011;5572;49.540;11.932;2022-08-20T01:14:53;3.83;;;3.53;;
11037;SDS011;5572;49.540;11.932;2022-08-20T01:17:21;3.80;;;3.50;;
11037;SDS011;5572;49.540;11.932;2022-08-20T01:19:52;3.53;;;3.27;;
11037;SDS011;5572;49.540;11.932;2022-08-20T01:22:23;4.00;;;3.43;;
11037;SDS011;5572;49.540;11.932;2022-08-20T01:25:21;5.40;;;3.33;;
11037;SDS011;5572;49.540;11.932;2022-08-20T01:27:56;5.33;;;3.67;;
11037;SDS011;5572;49.540;11.932;2022-08-20T01:30:24;3.30;;;3.10;;
11037;SDS011;5572;49.540;11.932;2022-08-20T01:32:52;3.97;;;3.67;;
11037;SDS011;5572;49.540;11.932;2022-08-20T01:35:19;3.70;;;3.40;;
11037;SDS011;5572;49.540;11.932;2022-08-20T01:37:47;3.70;;;3.40;;
11037;SDS011;5572;49.540;11.932;2022-08-20T01:40:14;3.30;;;3.03;;
11037;SDS011;5572;49.540;11.932;2022-08-20T01:42:46;3.57;;;3.27;;
11037;SDS011;5572;49.540;11.932;2022-08-20T01:45:15;3.90;;;3.57;;
11037;SDS011;5572;49.540;11.932;2022-08-20T01:47:41;3.73;;;3.43;;
11037;SDS011;5572;49.540;11.932;2022-08-20T01:50:09;4.40;;;3.67;;
11037;SDS011;5572;49.540;11.932;2022-08-20T01:52:45;3.77;;;3.30;;
11037;SDS011;5572;49.540;11.932;2022-08-20T01:55:17;3.37;;;3.07;;
11037;SDS011;5572;49.540;11.932;2022-08-20T01:57:43;3.40;;;3.17;;
11037;SDS011;5572;49.540;11.932;2022-08-20T02:00:14;2.90;;;2.70;;
11037;SDS011;5572;49.540;11.932;2022-08-20T02:02:43;3.53;;;3.23;;
11037;SDS011;5572;49.540;11.932;2022-08-20T02:05:09;3.40;;;3.20;;
11037;SDS011;5572;49.540;11.932;2022-08-20T02:07:36;3.77;;;3.47;;
11037;SDS011;5572;49.540;11.932;2022-08-20T02:10:04;4.00;;;3.70;;
11037;SDS011;5572;49.540;11.932;2022-08-20T02:12:32;4.43;;;4.00;;
11037;SDS011;5572;49.540;11.932;2022-08-20T02:15:00;3.97;;;3.63;;
11037;SDS011;5572;49.540;11.932;2022-08-20T02:17:28;4.10;;;3.73;;
11037;SDS011;5572;49.540;11.932;2022-08-20T02:19:56;3.67;;;3.37;;
11037;SDS011;5572;49.540;11.932;2022-08-20T02:22:25;3.50;;;3.20;;
11037;SDS011;5572;49.540;11.932;2022-08-20T02:24:58;5.23;;;3.27;;
11037;SDS011;5572;49.540;11.932;2022-08-20T02:27:24;3.93;;;3.53;;
11037;SDS011;5572;49.540;11.932;2022-08-20T02:29:51;4.30;;;3.70;;
11037;SDS011;5572;49.540;11.932;2022-08-20T02:32:18;3.73;;;3.43;;
11037;SDS011;5572;49.540;11.932;2022-08-20T02:34:47;4.10;;;3.70;;
11037;SDS011;5572;49.540;11.932;2022-08-20T02:37:14;3.70;;;3.40;;
11037;SDS011;5572;49.540;11.932;2022-08-20T02:39:42;5.53;;;4.00;;
11037;SDS011;5572;49.540;11.932;2022-08-20T02:42:08;4.50;;;4.20;;
11037;SDS011;5572;49.540;11.932;2022-08-20T02:44:36;3.97;;;3.67;;
11037;SDS011;5572;49.540;11.932;2022-08-20T02:47:03;4.37;;;3.97;;
11037;SDS011;5572;49.540;11.932;2022-08-20T02:49:30;4.10;;;3.80;;
11037;SDS011;5572;49.540;11.932;2022-08-20T02:51:58;6.33;;;3.80;;
11037;SDS011;5572;49.540;11.932;2022-08-20T02:54:25;3.70;;;3.40;;
11037;SDS011;5572;49.540;11.932;2022-08-20T02:56:53;4.47;;;3.13;;
11037;SDS011;5572;49.540;11.932;2022-08-20T02:59:19;3.90;;;3.30;;
11037;SDS011;5572;49.540;11.932;2022-08-20T03:01:46;4.63;;;4.17;;
11037;SDS011;5572;49.540;11.932;2022-08-20T03:04:13;5.27;;;4.77;;
11037;SDS011;5572;49.540;11.932;2022-08-20T03:06:40;5.50;;;4.93;;
11037;SDS011;5572;49.540;11.932;2022-08-20T03:09:07;6.87;;;5.40;;
11037;SDS011;5572;49.540;11.932;2022-08-20T03:11:34;4.10;;;3.80;;
11037;SDS011;5572;49.540;11.932;2022-08-20T03:14:03;4.87;;;4.37;;
11037;SDS011;5572;49.540;11.932;2022-08-20T03:16:30;3.93;;;3.40;;
11037;SDS011;5572;49.540;11.932;2022-08-20T03:18:56;4.87;;;4.43;;
11037;SDS011;5572;49.540;11.932;2022-08-20T03:21:23;3.30;;;3.07;;
11037;SDS011;5572;49.540;11.932;2022-08-20T03:23:50;4.70;;;4.30;;
11037;SDS011;5572;49.540;11.932;2022-08-20T03:26:18;5.00;;;3.93;;
11037;SDS011;5572;49.540;11.932;2022-08-20T03:28:45;6.97;;;6.13;;
11037;SDS011;5572;49.540;11.932;2022-08-20T03:31:11;4.43;;;4.13;;
11037;SDS011;5572;49.540;11.932;2022-08-20T03:33:39;4.10;;;3.70;;
11037;SDS011;5572;49.540;11.932;2022-08-20T03:36:06;5.30;;;4.80;;
11037;SDS011;5572;49.540;11.932;2022-08-20T03:38:33;5.60;;;5.00;;
11037;SDS011;5572;49.540;11.932;2022-08-20T03:41:00;5.97;;;5.37;;
11037;SDS011;5572;49.540;11.932;2022-08-20T03:43:30;10.07;;;7.10;;
11037;SDS011;5572;49.540;11.932;2022-08-20T03:45:57;5.57;;;4.90;;
11037;SDS011;5572;49.540;11.932;2022-08-20T03:48:24;6.40;;;5.03;;
11037;SDS011;5572;49.540;11.932;2022-08-20T03:50:51;5.00;;;4.50;;
11037;SDS011;5572;49.540;11.932;2022-08-20T03:53:18;5.93;;;5.10;;
11037;SDS011;5572;49.540;11.932;2022-08-20T03:55:46;5.30;;;4.80;;
11037;SDS011;5572;49.540;11.932;2022-08-20T03:58:14;5.40;;;4.90;;
11037;SDS011;5572;49.540;11.932;2022-08-20T04:00:46;5.40;;;4.37;;
11037;SDS011;5572;49.540;11.932;2022-08-20T04:03:14;5.33;;;4.83;;
11037;SDS011;5572;49.540;11.932;2022-08-20T04:05:52;4.87;;;4.47;;
11037;SDS011;5572;49.540;11.932;2022-08-20T04:08:21;5.43;;;4.93;;
11037;SDS011;5572;49.540;11.932;2022-08-20T04:10:53;6.80;;;5.20;;
11037;SDS011;5572;49.540;11.932;2022-08-20T04:13:21;7.27;;;6.10;;
11037;SDS011;5572;49.540;11.932;2022-08-20T04:15:52;4.60;;;4.20;;
11037;SDS011;5572;49.540;11.932;2022-08-20T04:18:20;4.33;;;4.00;;
11037;SDS011;5572;49.540;11.932;2022-08-20T04:20:48;5.50;;;5.10;;
11037;SDS011;5572;49.540;11.932;2022-08-20T04:23:16;6.73;;;6.13;;
11037;SDS011;5572;49.540;11.932;2022-08-20T04:25:44;5.50;;;4.93;;
11037;SDS011;5572;49.540;11.932;2022-08-20T04:28:12;4.10;;;3.73;;
11037;SDS011;5572;49.540;11.932;2022-08-20T04:30:40;5.47;;;4.97;;
11037;SDS011;5572;49.540;11.932;2022-08-20T04:33:09;8.43;;;7.60;;
11037;SDS011;5572;49.540;11.932;2022-08-20T04:35:35;8.80;;;7.27;;
11037;SDS011;5572;49.540;11.932;2022-08-20T04:38:03;12.50;;;9.07;;
11037;SDS011;5572;49.540;11.932;2022-08-20T04:40:32;11.63;;;8.50;;
11037;SDS011;5572;49.540;11.932;2022-08-20T04:43:24;8.40;;;7.60;;
11037;SDS011;5572;49.540;11.932;2022-08-20T04:45:52;11.33;;;8.37;;
11037;SDS011;5572;49.540;11.932;2022-08-20T04:48:24;10.47;;;8.13;;
11037;SDS011;5572;49.540;11.932;2022-08-20T04:50:53;10.80;;;8.03;;
11037;SDS011;5572;49.540;11.932;2022-08-20T04:53:47;9.30;;;7.83;;
11037;SDS011;5572;49.540;11.932;2022-08-20T04:56:17;9.67;;;7.37;;
11037;SDS011;5572;49.540;11.932;2022-08-20T04:58:47;8.47;;;7.67;;
11037;SDS011;5572;49.540;11.932;2022-08-20T05:01:15;8.30;;;7.40;;
11037;SDS011;5572;49.540;11.932;2022-08-20T05:03:43;11.37;;;8.17;;
11037;SDS011;5572;49.540;11.932;2022-08-20T05:06:12;8.67;;;7.77;;
11037;SDS011;5572;49.540;11.932;2022-08-20T05:08:41;9.67;;;7.27;;
11037;SDS011;5572;49.540;11.932;2022-08-20T05:11:11;10.03;;;7.93;;
11037;SDS011;5572;49.540;11.932;2022-08-20T05:13:39;9.50;;;8.20;;
11037;SDS011;5572;49.540;11.932;2022-08-20T05:16:07;7.43;;;6.60;;
11037;SDS011;5572;49.540;11.932;2022-08-20T05:18:33;7.17;;;6.47;;
11037;SDS011;5572;49.540;11.932;2022-08-20T05:21:02;8.57;;;7.13;;
11037;SDS011;5572;49.540;11.932;2022-08-20T05:23:29;7.37;;;6.67;;
11037;SDS011;5572;49.540;11.932;2022-08-20T05:25:56;7.57;;;6.80;;
11037;SDS011;5572;49.540;11.932;2022-08-20T05:28:24;7.17;;;6.10;;
11037;SDS011;5572;49.540;11.932;2022-08-20T05:30:56;8.17;;;7.00;;
11037;SDS011;5572;49.540;11.932;2022-08-20T05:33:26;7.43;;;6.73;;
11037;SDS011;5572;49.540;11.932;2022-08-20T05:35:55;8.87;;;7.63;;
11037;SDS011;5572;49.540;11.932;2022-08-20T05:38:24;9.30;;;8.10;;
11037;SDS011;5572;49.540;11.932;2022-08-20T05:40:52;7.10;;;6.40;;
11037;SDS011;5572;49.540;11.932;2022-08-20T05:43:20;7.80;;;7.03;;
11037;SDS011;5572;49.540;11.932;2022-08-20T05:45:48;9.23;;;8.43;;
11037;SDS011;5572;49.540;11.932;2022-08-20T05:48:17;8.37;;;7.57;;
11037;SDS011;5572;49.540;11.932;2022-08-20T05:50:47;7.90;;;7.00;;
11037;SDS011;5572;49.540;11.932;2022-08-20T05:53:15;7.80;;;7.00;;
11037;SDS011;5572;49.540;11.932;2022-08-20T05:55:44;7.93;;;7.07;;
11037;SDS011;5572;49.540;11.932;2022-08-20T05:58:15;11.30;;;9.03;;
11037;SDS011;5572;49.540;11.932;2022-08-20T06:00:44;10.10;;;9.00;;
11037;SDS011;5572;49.540;11.932;2022-08-20T06:03:12;25.53;;;15.83;;
11037;SDS011;5572;49.540;11.932;2022-08-20T06:05:56;11.40;;;8.50;;
11037;SDS011;5572;49.540;11.932;2022-08-20T06:08:23;17.17;;;11.57;;
11037;SDS011;5572;49.540;11.932;2022-08-20T06:10:51;12.03;;;9.53;;
11037;SDS011;5572;49.540;11.932;2022-08-20T06:13:18;11.60;;;9.53;;
11037;SDS011;5572;49.540;11.932;2022-08-20T06:15:46;11.17;;;8.80;;
11037;SDS011;5572;49.540;11.932;2022-08-20T06:18:13;12.70;;;9.03;;
11037;SDS011;5572;49.540;11.932;2022-08-20T06:20:40;12.27;;;9.43;;
11037;SDS011;5572;49.540;11.932;2022-08-20T06:23:07;10.37;;;8.80;;
11037;SDS011;5572;49.540;11.932;2022-08-20T06:25:34;11.63;;;10.00;;
11037;SDS011;5572;49.540;11.932;2022-08-20T06:28:08;11.13;;;9.50;;
11037;SDS011;5572;49.540;11.932;2022-08-20T06:30:34;9.83;;;8.83;;
11037;SDS011;5572;49.540;11.932;2022-08-20T06:33:01;13.00;;;9.33;;
11037;SDS011;5572;49.540;11.932;2022-08-20T06:35:28;12.30;;;9.13;;
11037;SDS011;5572;49.540;11.932;2022-08-20T06:37:55;11.17;;;9.37;;
11037;SDS011;5572;49.540;11.932;2022-08-20T06:40:25;13.63;;;9.20;;
11037;SDS011;5572;49.540;11.932;2022-08-20T06:42:53;10.10;;;8.80;;
11037;SDS011;5572;49.540;11.932;2022-08-20T06:45:23;9.47;;;8.50;;
11037;SDS011;5572;49.540;11.932;2022-08-20T06:47:52;9.23;;;7.97;;
11037;SDS011;5572;49.540;11.932;2022-08-20T06:50:22;10.73;;;8.47;;
11037;SDS011;5572;49.540;11.932;2022-08-20T06:52:49;10.57;;;8.33;;
11037;SDS011;5572;49.540;11.932;2022-08-20T06:55:16;10.90;;;8.77;;
11037;SDS011;5572;49.540;11.932;2022-08-20T06:57:43;10.27;;;8.47;;
11037;SDS011;5572;49.540;11.932;2022-08-20T07:00:13;12.93;;;8.23;;
11037;SDS011;5572;49.540;11.932;2022-08-20T07:02:43;8.80;;;7.83;;
11037;SDS011;5572;49.540;11.932;2022-08-20T07:05:10;10.20;;;8.10;;
11037;SDS011;5572;49.540;11.932;2022-08-20T07:07:37;9.50;;;8.33;;
11037;SDS011;5572;49.540;11.932;2022-08-20T07:10:05;12.63;;;9.03;;
11037;SDS011;5572;49.540;11.932;2022-08-20T07:12:33;12.60;;;8.47;;
11037;SDS011;5572;49.540;11.932;2022-08-20T07:15:00;8.73;;;7.47;;
11037;SDS011;5572;49.540;11.932;2022-08-20T07:17:27;8.47;;;7.53;;
11037;SDS011;5572;49.540;11.932;2022-08-20T07:19:56;9.17;;;7.20;;
11037;SDS011;5572;49.540;11.932;2022-08-20T07:22:22;7.97;;;7.17;;
11037;SDS011;5572;49.540;11.932;2022-08-20T07:24:49;7.83;;;7.00;;
11037;SDS011;5572;49.540;11.932;2022-08-20T07:27:18;8.50;;;6.87;;
11037;SDS011;5572;49.540;11.932;2022-08-20T07:29:45;9.67;;;8.13;;
11037;SDS011;5572;49.540;11.932;2022-08-20T07:32:30;8.10;;;7.30;;
11037;SDS011;5572;49.540;11.932;2022-08-20T07:35:03;9.30;;;7.17;;
11037;SDS011;5572;49.540;11.932;2022-08-20T07:37:31;8.47;;;6.57;;
11037;SDS011;5572;49.540;11.932;2022-08-20T07:40:02;6.27;;;5.67;;
11037;SDS011;5572;49.540;11.932;2022-08-20T07:42:29;8.10;;;6.80;;
11037;SDS011;5572;49.540;11.932;2022-08-20T07:44:56;10.70;;;6.80;;
11037;SDS011;5572;49.540;11.932;2022-08-20T07:47:22;7.20;;;5.90;;
11037;SDS011;5572;49.540;11.932;2022-08-20T07:49:49;8.00;;;7.20;;
11037;SDS011;5572;49.540;11.932;2022-08-20T07:52:17;7.83;;;7.00;;
11037;SDS011;5572;49.540;11.932;2022-08-20T07:54:43;7.93;;;7.13;;
11037;SDS011;5572;49.540;11.932;2022-08-20T07:57:10;9.50;;;8.00;;
11037;SDS011;5572;49.540;11.932;2022-08-20T07:59:37;8.27;;;7.47;;
11037;SDS011;5572;49.540;11.932;2022-08-20T08:02:04;9.57;;;7.53;;
11037;SDS011;5572;49.540;11.932;2022-08-20T08:04:31;7.57;;;6.87;;
11037;SDS011;5572;49.540;11.932;2022-08-20T08:06:58;8.63;;;7.70;;
11037;SDS011;5572;49.540;11.932;2022-08-20T08:09:26;9.80;;;8.30;;
11037;SDS011;5572;49.540;11.932;2022-08-20T08:11:55;8.07;;;7.27;;
11037;SDS011;5572;49.540;11.932;2022-08-20T08:14:26;8.50;;;7.60;;
11037;SDS011;5572;49.540;11.932;2022-08-20T08:16:56;11.00;;;8.70;;
11037;SDS011;5572;49.540;11.932;2022-08-20T08:19:25;8.00;;;7.20;;
11037;SDS011;5572;49.540;11.932;2022-08-20T08:21:58;11.17;;;9.23;;
11037;SDS011;5572;49.540;11.932;2022-08-20T08:24:24;8.37;;;7.57;;
11037;SDS011;5572;49.540;11.932;2022-08-20T08:26:52;9.50;;;8.10;;
11037;SDS011;5572;49.540;11.932;2022-08-20T08:29:19;9.30;;;8.40;;
11037;SDS011;5572;49.540;11.932;2022-08-20T08:31:45;8.23;;;7.43;;
11037;SDS011;5572;49.540;11.932;2022-08-20T08:34:12;13.40;;;7.07;;
11037;SDS011;5572;49.540;11.932;2022-08-20T08:36:39;14.07;;;11.20;;
11037;SDS011;5572;49.540;11.932;2022-08-20T08:39:06;13.17;;;9.93;;
11037;SDS011;5572;49.540;11.932;2022-08-20T08:41:35;13.97;;;10.93;;
11037;SDS011;5572;49.540;11.932;2022-08-20T08:44:06;14.63;;;10.73;;
11037;SDS011;5572;49.540;11.932;2022-08-20T08:46:37;11.00;;;8.93;;
11037;SDS011;5572;49.540;11.932;2022-08-20T08:49:09;10.37;;;9.23;;
11037;SDS011;5572;49.540;11.932;2022-08-20T08:51:39;18.50;;;13.23;;
11037;SDS011;5572;49.540;11.932;2022-08-20T08:54:09;13.90;;;12.37;;
11037;SDS011;5572;49.540;11.932;2022-08-20T08:56:42;19.07;;;13.27;;
11037;SDS011;5572;49.540;11.932;2022-08-20T08:59:09;18.30;;;12.10;;
11037;SDS011;5572;49.540;11.932;2022-08-20T09:01:38;14.53;;;12.73;;
11037;SDS011;5572;49.540;11.932;2022-08-20T09:04:09;14.83;;;12.23;;
11037;SDS011;5572;49.540;11.932;2022-08-20T09:06:37;17.00;;;13.40;;
11037;SDS011;5572;49.540;11.932;2022-08-20T09:09:05;14.67;;;12.17;;
11037;SDS011;5572;49.540;11.932;2022-08-20T09:11:45;20.27;;;14.57;;
11037;SDS011;5572;49.540;11.932;2022-08-20T09:14:13;17.90;;;13.53;;
11037;SDS011;5572;49.540;11.932;2022-08-20T09:16:39;15.20;;;12.70;;
11037;SDS011;5572;49.540;11.932;2022-08-20T09:19:06;18.00;;;12.63;;
11037;SDS011;5572;49.540;11.932;2022-08-20T09:21:32;17.57;;;13.43;;
11037;SDS011;5572;49.540;11.932;2022-08-20T09:23:59;18.43;;;12.33;;
11037;SDS011;5572;49.540;11.932;2022-08-20T09:26:25;15.90;;;12.30;;
11037;SDS011;5572;49.540;11.932;2022-08-20T09:28:53;19.43;;;12.83;;
11037;SDS011;5572;49.540;11.932;2022-08-20T09:31:20;15.00;;;11.50;;
11037;SDS011;5572;49.540;11.932;2022-08-20T09:33:48;17.87;;;13.00;;
11037;SDS011;5572;49.540;11.932;2022-08-20T09:36:14;18.37;;;12.37;;
11037;SDS011;5572;49.540;11.932;2022-08-20T09:38:41;16.93;;;12.80;;
11037;SDS011;5572;49.540;11.932;2022-08-20T09:41:07;15.13;;;12.10;;
11037;SDS011;5572;49.540;11.932;2022-08-20T09:43:34;17.50;;;13.10;;
11037;SDS011;5572;49.540;11.932;2022-08-20T09:46:02;12.60;;;10.60;;
11037;SDS011;5572;49.540;11.932;2022-08-20T09:48:28;15.93;;;12.20;;
11037;SDS011;5572;49.540;11.932;2022-08-20T09:50:55;16.53;;;12.60;;
11037;SDS011;5572;49.540;11.932;2022-08-20T09:53:22;12.13;;;10.63;;
11037;SDS011;5572;49.540;11.932;2022-08-20T09:55:50;16.10;;;11.87;;
11037;SDS011;5572;49.540;11.932;2022-08-20T09:58:18;18.03;;;13.70;;
11037;SDS011;5572;49.540;11.932;2022-08-20T10:00:47;10.80;;;8.00;;
11037;SDS011;5572;49.540;11.932;2022-08-20T10:03:15;15.37;;;13.10;;
11037;SDS011;5572;49.540;11.932;2022-08-20T10:05:42;15.57;;;11.53;;
11037;SDS011;5572;49.540;11.932;2022-08-20T10:08:09;16.00;;;13.27;;
11037;SDS011;5572;49.540;11.932;2022-08-20T10:10:37;13.73;;;12.17;;
11037;SDS011;5572;49.540;11.932;2022-08-20T10:13:04;16.53;;;13.10;;
11037;SDS011;5572;49.540;11.932;2022-08-20T10:15:30;13.37;;;10.70;;
11037;SDS011;5572;49.540;11.932;2022-08-20T10:17:57;12.60;;;11.03;;
11037;SDS011;5572;49.540;11.932;2022-08-20T10:20:25;17.27;;;12.50;;
11037;SDS011;5572;49.540;11.932;2022-08-20T10:22:51;18.50;;;14.20;;
11037;SDS011;5572;49.540;11.932;2022-08-20T10:25:18;16.93;;;11.97;;
11037;SDS011;5572;49.540;11.932;2022-08-20T10:27:44;15.30;;;12.33;;
11037;SDS011;5572;49.540;11.932;2022-08-20T10:30:11;16.47;;;13.17;;
11037;SDS011;5572;49.540;11.932;2022-08-20T10:32:38;16.33;;;13.40;;
11037;SDS011;5572;49.540;11.932;2022-08-20T10:35:05;17.87;;;13.33;;
11037;SDS011;5572;49.540;11.932;2022-08-20T10:37:33;16.93;;;14.70;;
11037;SDS011;5572;49.540;11.932;2022-08-20T10:40:00;15.40;;;12.33;;
11037;SDS011;5572;49.540;11.932;2022-08-20T10:42:27;15.97;;;12.53;;
11037;SDS011;5572;49.540;11.932;2022-08-20T10:44:53;20.40;;;13.57;;
11037;SDS011;5572;49.540;11.932;2022-08-20T10:47:21;15.17;;;12.10;;
11037;SDS011;5572;49.540;11.932;2022-08-20T10:49:49;16.10;;;10.40;;
11037;SDS011;5572;49.540;11.932;2022-08-20T10:52:18;18.47;;;12.27;;
11037;SDS011;5572;49.540;11.932;2022-08-20T10:54:48;14.57;;;11.50;;
11037;SDS011;5572;49.540;11.932;2022-08-20T10:57:16;20.13;;;13.70;;
11037;SDS011;5572;49.540;11.932;2022-08-20T10:59:45;16.33;;;12.07;;
11037;SDS011;5572;49.540;11.932;2022-08-20T11:02:13;13.87;;;12.00;;
11037;SDS011;5572;49.540;11.932;2022-08-20T11:04:40;16.17;;;13.00;;
11037;SDS011;5572;49.540;11.932;2022-08-20T11:07:11;14.70;;;11.00;;
11037;SDS011;5572;49.540;11.932;2022-08-20T11:09:39;17.17;;;13.40;;
11037;SDS011;5572;49.540;11.932;2022-08-20T11:12:07;14.10;;;12.40;;
11037;SDS011;5572;49.540;11.932;2022-08-20T11:14:34;17.73;;;14.03;;
11037;SDS011;5572;49.540;11.932;2022-08-20T11:17:01;16.10;;;12.77;;
11037;SDS011;5572;49.540;11.932;2022-08-20T11:19:29;16.33;;;12.27;;
11037;SDS011;5572;49.540;11.932;2022-08-20T11:21:55;16.67;;;13.50;;
11037;SDS011;5572;49.540;11.932;2022-08-20T11:24:22;19.57;;;13.43;;
11037;SDS011;5572;49.540;11.932;2022-08-20T11:26:49;19.87;;;13.57;;
11037;SDS011;5572;49.540;11.932;2022-08-20T11:29:18;17.97;;;13.40;;
11037;SDS011;5572;49.540;11.932;2022-08-20T11:31:46;17.40;;;13.03;;
11037;SDS011;5572;49.540;11.932;2022-08-20T11:34:13;15.80;;;14.13;;
11037;SDS011;5572;49.540;11.932;2022-08-20T11:36:39;15.03;;;12.27;;
11037;SDS011;5572;49.540;11.932;2022-08-20T11:39:06;13.93;;;11.57;;
11037;SDS011;5572;49.540;11.932;2022-08-20T11:41:33;16.70;;;13.47;;
11037;SDS011;5572;49.540;11.932;2022-08-20T11:43:59;17.30;;;13.10;;
11037;SDS011;5572;49.540;11.932;2022-08-20T11:46:27;16.87;;;12.77;;
11037;SDS011;5572;49.540;11.932;2022-08-20T11:48:53;13.80;;;12.23;;
11037;SDS011;5572;49.540;11.932;2022-08-20T11:51:20;14.77;;;12.17;;
11037;SDS011;5572;49.540;11.932;2022-08-20T11:53:47;17.10;;;12.43;;
11037;SDS011;5572;49.540;11.932;2022-08-20T11:56:13;15.30;;;12.63;;
11037;SDS011;5572;49.540;11.932;2022-08-20T11:58:42;21.43;;;13.80;;
11037;SDS011;5572;49.540;11.932;2022-08-20T12:01:10;11.47;;;9.93;;
11037;SDS011;5572;49.540;11.932;2022-08-20T12:03:38;14.20;;;10.87;;
11037;SDS011;5572;49.540;11.932;2022-08-20T12:06:05;16.20;;;12.87;;
11037;SDS011;5572;49.540;11.932;2022-08-20T12:08:32;15.27;;;12.23;;
11037;SDS011;5572;49.540;11.932;2022-08-20T12:10:59;14.73;;;12.37;;
11037;SDS011;5572;49.540;11.932;2022-08-20T12:13:28;15.27;;;11.50;;
11037;SDS011;5572;49.540;11.932;2022-08-20T12:15:57;17.90;;;13.73;;
11037;SDS011;5572;49.540;11.932;2022-08-20T12:18:23;18.73;;;12.80;;
11037;SDS011;5572;49.540;11.932;2022-08-20T12:20:51;16.93;;;11.77;;
11037;SDS011;5572;49.540;11.932;2022-08-20T12:23:18;14.00;;;12.33;;
11037;SDS011;5572;49.540;11.932;2022-08-20T12:25:45;14.97;;;11.97;;
11037;SDS011;5572;49.540;11.932;2022-08-20T12:28:11;17.53;;;12.23;;
11037;SDS011;5572;49.540;11.932;2022-08-20T12:30:38;16.27;;;13.20;;
11037;SDS011;5572;49.540;11.932;2022-08-20T12:33:05;11.27;;;8.77;;
11037;SDS011;5572;49.540;11.932;2022-08-20T12:35:32;15.57;;;12.90;;
11037;SDS011;5572;49.540;11.932;2022-08-20T12:38:02;17.17;;;13.70;;
11037;SDS011;5572;49.540;11.932;2022-08-20T12:40:29;17.67;;;14.83;;
11037;SDS011;5572;49.540;11.932;2022-08-20T12:42:55;13.60;;;11.67;;
11037;SDS011;5572;49.540;11.932;2022-08-20T12:45:22;15.33;;;13.07;;
11037;SDS011;5572;49.540;11.932;2022-08-20T12:47:49;18.50;;;14.17;;
11037;SDS011;5572;49.540;11.932;2022-08-20T12:50:16;15.87;;;12.30;;
11037;SDS011;5572;49.540;11.932;2022-08-20T12:52:45;15.70;;;12.53;;
11037;SDS011;5572;49.540;11.932;2022-08-20T12:55:16;17.27;;;13.67;;
11037;SDS011;5572;49.540;11.932;2022-08-20T12:57:45;15.03;;;12.63;;
11037;SDS011;5572;49.540;11.932;2022-08-20T13:00:15;17.10;;;12.53;;
11037;SDS011;5572;49.540;11.932;2022-08-20T13:02:45;16.67;;;12.87;;
11037;SDS011;5572;49.540;11.932;2022-08-20T13:05:12;17.57;;;10.90;;
11037;SDS011;5572;49.540;11.932;2022-08-20T13:07:41;16.73;;;13.37;;
11037;SDS011;5572;49.540;11.932;2022-08-20T13:10:09;14.83;;;12.33;;
11037;SDS011;5572;49.540;11.932;2022-08-20T13:12:38;19.27;;;10.73;;
11037;SDS011;5572;49.540;11.932;2022-08-20T13:15:05;15.93;;;12.70;;
11037;SDS011;5572;49.540;11.932;2022-08-20T13:17:32;15.27;;;12.60;;
11037;SDS011;5572;49.540;11.932;2022-08-20T13:19:59;13.63;;;10.97;;
11037;SDS011;5572;49.540;11.932;2022-08-20T13:22:25;15.33;;;13.00;;
11037;SDS011;5572;49.540;11.932;2022-08-20T13:24:52;17.33;;;14.17;;
11037;SDS011;5572;49.540;11.932;2022-08-20T13:27:19;14.97;;;13.20;;
11037;SDS011;5572;49.540;11.932;2022-08-20T13:29:48;15.80;;;14.07;;
11037;SDS011;5572;49.540;11.932;2022-08-20T13:32:18;18.43;;;12.80;;
11037;SDS011;5572;49.540;11.932;2022-08-20T13:34:45;16.13;;;14.40;;
11037;SDS011;5572;49.540;11.932;2022-08-20T13:37:13;20.07;;;12.73;;
11037;SDS011;5572;49.540;11.932;2022-08-20T13:39:40;17.07;;;15.13;;
11037;SDS011;5572;49.540;11.932;2022-08-20T13:42:07;18.30;;;14.37;;
11037;SDS011;5572;49.540;11.932;2022-08-20T13:44:34;16.73;;;13.77;;
11037;SDS011;5572;49.540;11.932;2022-08-20T13:47:13;16.47;;;13.40;;
11037;SDS011;5572;49.540;11.932;2022-08-20T13:49:40;15.23;;;13.63;;
11037;SDS011;5572;49.540;11.932;2022-08-20T13:52:07;17.50;;;12.93;;
11037;SDS011;5572;49.540;11.932;2022-08-20T13:54:34;16.47;;;13.90;;
11037;SDS011;5572;49.540;11.932;2022-08-20T13:57:04;9.63;;;8.67;;
11037;SDS011;5572;49.540;11.932;2022-08-20T13:59:33;21.50;;;12.93;;
11037;SDS011;5572;49.540;11.932;2022-08-20T14:02:01;17.20;;;12.93;;
11037;SDS011;5572;49.540;11.932;2022-08-20T14:04:29;15.00;;;13.07;;
11037;SDS011;5572;49.540;11.932;2022-08-20T14:06:55;16.40;;;13.37;;
11037;SDS011;5572;49.540;11.932;2022-08-20T14:09:22;16.87;;;12.37;;
11037;SDS011;5572;49.540;11.932;2022-08-20T14:11:48;20.77;;;15.17;;
11037;SDS011;5572;49.540;11.932;2022-08-20T14:14:15;17.17;;;13.53;;
11037;SDS011;5572;49.540;11.932;2022-08-20T14:16:41;17.00;;;14.67;;
11037;SDS011;5572;49.540;11.932;2022-08-20T14:19:08;14.97;;;12.57;;
11037;SDS011;5572;49.540;11.932;2022-08-20T14:21:36;14.20;;;11.83;;
11037;SDS011;5572;49.540;11.932;2022-08-20T14:24:02;20.30;;;14.87;;
11037;SDS011;5572;49.540;11.932;2022-08-20T14:26:29;14.47;;;12.37;;
11037;SDS011;5572;49.540;11.932;2022-08-20T14:28:55;16.03;;;12.87;;
11037;SDS011;5572;49.540;11.932;2022-08-20T14:31:22;17.17;;;12.63;;
11037;SDS011;5572;49.540;11.932;2022-08-20T14:33:48;14.20;;;11.53;;
11037;SDS011;5572;49.540;11.932;2022-08-20T14:36:15;15.37;;;13.77;;
11037;SDS011;5572;49.540;11.932;2022-08-20T14:38:43;16.60;;;12.57;;
11037;SDS011;5572;49.540;11.932;2022-08-20T14:41:10;14.40;;;12.23;;